sensor_id;sensor_type;location;lat;lon;timestamp;P1;durP1;ratioP1;P2;durP2;ratioP2
72728;SDS011;60843;52.062;4.508;2023-11-18T00:01:54;14.10;;;6.68;;
72728;SDS011;60843;52.062;4.508;2023-11-18T00:04:21;14.98;;;6.68;;
72728;SDS011;60843;52.062;4.508;2023-11-18T00:06:47;13.57;;;6.75;;
72728;SDS011;60843;52.062;4.508;2023-11-18T00:09:13;12.52;;;6.72;;
72728;SDS011;60843;52.062;4.508;2023-11-18T00:11:42;15.60;;;6.55;;
72728;SDS011;60843;52.062;4.508;2023-11-18T00:16:35;15.23;;;6.32;;
72728;SDS011;60843;52.062;4.508;2023-11-18T00:19:01;17.05;;;6.75;;
72728;SDS011;60843;52.062;4.508;2023-11-18T00:21:31;13.85;;;6.47;;
72728;SDS011;60843;52.062;4.508;2023-11-18T00:23:56;14.55;;;6.15;;
72728;SDS011;60843;52.062;4.508;2023-11-18T00:26:22;13.30;;;6.22;;
72728;SDS011;60843;52.062;4.508;2023-11-18T00:28:47;15.27;;;6.57;;
72728;SDS011;60843;52.062;4.508;2023-11-18T00:31:15;12.25;;;6.68;;
72728;SDS011;60843;52.062;4.508;2023-11-18T00:33:41;15.55;;;7.65;;
72728;SDS011;60843;52.062;4.508;2023-11-18T00:36:07;13.48;;;6.65;;
72728;SDS011;60843;52.062;4.508;2023-11-18T00:38:34;17.25;;;7.20;;
72728;SDS011;60843;52.062;4.508;2023-11-18T00:40:59;15.27;;;7.03;;
72728;SDS011;60843;52.062;4.508;2023-11-18T00:43:25;21.05;;;7.18;;
72728;SDS011;60843;52.062;4.508;2023-11-18T00:45:51;11.40;;;7.13;;
72728;SDS011;60843;52.062;4.508;2023-11-18T00:48:19;16.00;;;6.57;;
72728;SDS011;60843;52.062;4.508;2023-11-18T00:50:45;18.67;;;7.50;;
72728;SDS011;60843;52.062;4.508;2023-11-18T00:53:11;19.20;;;7.45;;
72728;SDS011;60843;52.062;4.508;2023-11-18T00:55:37;18.75;;;8.00;;
72728;SDS011;60843;52.062;4.508;2023-11-18T00:58:02;14.70;;;7.22;;
72728;SDS011;60843;52.062;4.508;2023-11-18T01:00:30;12.63;;;7.00;;
72728;SDS011;60843;52.062;4.508;2023-11-18T01:02:59;17.00;;;8.02;;
72728;SDS011;60843;52.062;4.508;2023-11-18T01:05:25;16.67;;;7.95;;
72728;SDS011;60843;52.062;4.508;2023-11-18T01:07:50;17.35;;;7.50;;
72728;SDS011;60843;52.062;4.508;2023-11-18T01:10:16;20.80;;;8.13;;
72728;SDS011;60843;52.062;4.508;2023-11-18T01:12:45;17.10;;;7.13;;
72728;SDS011;60843;52.062;4.508;2023-11-18T01:15:10;12.45;;;6.70;;
72728;SDS011;60843;52.062;4.508;2023-11-18T01:17:38;17.67;;;7.35;;
72728;SDS011;60843;52.062;4.508;2023-11-18T01:20:04;16.55;;;7.55;;
72728;SDS011;60843;52.062;4.508;2023-11-18T01:22:36;16.48;;;8.15;;
72728;SDS011;60843;52.062;4.508;2023-11-18T01:25:03;18.63;;;7.22;;
72728;SDS011;60843;52.062;4.508;2023-11-18T01:27:30;22.40;;;8.25;;
72728;SDS011;60843;52.062;4.508;2023-11-18T01:29:59;18.50;;;6.85;;
72728;SDS011;60843;52.062;4.508;2023-11-18T01:32:34;19.35;;;7.97;;
72728;SDS011;60843;52.062;4.508;2023-11-18T01:35:05;18.05;;;7.43;;
72728;SDS011;60843;52.062;4.508;2023-11-18T01:37:31;14.65;;;7.90;;
72728;SDS011;60843;52.062;4.508;2023-11-18T01:39:57;18.63;;;7.00;;
72728;SDS011;60843;52.062;4.508;2023-11-18T01:42:23;14.80;;;7.20;;
72728;SDS011;60843;52.062;4.508;2023-11-18T01:44:51;14.50;;;7.53;;
72728;SDS011;60843;52.062;4.508;2023-11-18T01:47:17;17.55;;;6.47;;
72728;SDS011;60843;52.062;4.508;2023-11-18T01:49:43;13.55;;;7.45;;
72728;SDS011;60843;52.062;4.508;2023-11-18T01:52:09;13.27;;;6.97;;
72728;SDS011;60843;52.062;4.508;2023-11-18T01:54:38;13.40;;;7.90;;
72728;SDS011;60843;52.062;4.508;2023-11-18T01:57:04;17.10;;;7.75;;
72728;SDS011;60843;52.062;4.508;2023-11-18T01:59:34;16.35;;;7.60;;
72728;SDS011;60843;52.062;4.508;2023-11-18T02:02:00;14.68;;;7.20;;
72728;SDS011;60843;52.062;4.508;2023-11-18T02:04:26;15.70;;;7.07;;
72728;SDS011;60843;52.062;4.508;2023-11-18T02:06:53;12.18;;;6.65;;
72728;SDS011;60843;52.062;4.508;2023-11-18T02:09:19;11.60;;;6.63;;
72728;SDS011;60843;52.062;4.508;2023-11-18T02:12:16;12.07;;;6.03;;
72728;SDS011;60843;52.062;4.508;2023-11-18T02:14:48;15.30;;;6.47;;
72728;SDS011;60843;52.062;4.508;2023-11-18T02:17:14;16.65;;;7.50;;
72728;SDS011;60843;52.062;4.508;2023-11-18T02:19:43;15.95;;;7.03;;
72728;SDS011;60843;52.062;4.508;2023-11-18T02:22:09;16.35;;;6.78;;
72728;SDS011;60843;52.062;4.508;2023-11-18T02:24:36;13.93;;;7.30;;
72728;SDS011;60843;52.062;4.508;2023-11-18T02:27:02;10.70;;;6.55;;
72728;SDS011;60843;52.062;4.508;2023-11-18T02:29:34;13.93;;;6.70;;
72728;SDS011;60843;52.062;4.508;2023-11-18T02:32:05;16.33;;;7.10;;
72728;SDS011;60843;52.062;4.508;2023-11-18T02:35:10;18.23;;;7.07;;
72728;SDS011;60843;52.062;4.508;2023-11-18T02:37:42;16.08;;;6.78;;
72728;SDS011;60843;52.062;4.508;2023-11-18T02:40:11;14.80;;;7.35;;
72728;SDS011;60843;52.062;4.508;2023-11-18T02:42:40;20.27;;;7.60;;
72728;SDS011;60843;52.062;4.508;2023-11-18T02:45:07;12.15;;;7.22;;
72728;SDS011;60843;52.062;4.508;2023-11-18T02:47:35;18.50;;;6.80;;
72728;SDS011;60843;52.062;4.508;2023-11-18T02:50:04;13.48;;;7.00;;
72728;SDS011;60843;52.062;4.508;2023-11-18T02:52:36;14.65;;;7.13;;
72728;SDS011;60843;52.062;4.508;2023-11-18T02:55:03;15.57;;;7.45;;
72728;SDS011;60843;52.062;4.508;2023-11-18T02:57:31;13.63;;;6.78;;
72728;SDS011;60843;52.062;4.508;2023-11-18T02:59:58;14.73;;;7.78;;
72728;SDS011;60843;52.062;4.508;2023-11-18T03:02:25;16.45;;;7.28;;
72728;SDS011;60843;52.062;4.508;2023-11-18T03:04:54;11.02;;;6.47;;
72728;SDS011;60843;52.062;4.508;2023-11-18T03:07:20;20.00;;;7.18;;
72728;SDS011;60843;52.062;4.508;2023-11-18T03:09:46;14.52;;;7.28;;
72728;SDS011;60843;52.062;4.508;2023-11-18T03:12:12;13.15;;;6.47;;
72728;SDS011;60843;52.062;4.508;2023-11-18T03:14:38;11.68;;;6.00;;
72728;SDS011;60843;52.062;4.508;2023-11-18T03:17:04;13.50;;;6.95;;
72728;SDS011;60843;52.062;4.508;2023-11-18T03:19:34;14.57;;;6.47;;
72728;SDS011;60843;52.062;4.508;2023-11-18T03:24:29;18.33;;;6.45;;
72728;SDS011;60843;52.062;4.508;2023-11-18T03:26:58;13.48;;;6.25;;
72728;SDS011;60843;52.062;4.508;2023-11-18T03:29:24;13.15;;;6.32;;
72728;SDS011;60843;52.062;4.508;2023-11-18T03:31:49;11.20;;;6.05;;
72728;SDS011;60843;52.062;4.508;2023-11-18T03:34:18;14.15;;;6.80;;
72728;SDS011;60843;52.062;4.508;2023-11-18T03:36:45;15.23;;;7.68;;
72728;SDS011;60843;52.062;4.508;2023-11-18T03:39:12;13.93;;;7.20;;
72728;SDS011;60843;52.062;4.508;2023-11-18T03:41:37;15.95;;;7.25;;
72728;SDS011;60843;52.062;4.508;2023-11-18T03:44:06;14.73;;;6.70;;
72728;SDS011;60843;52.062;4.508;2023-11-18T03:46:31;12.57;;;6.38;;
72728;SDS011;60843;52.062;4.508;2023-11-18T03:48:59;11.80;;;5.55;;
72728;SDS011;60843;52.062;4.508;2023-11-18T03:51:26;17.17;;;6.57;;
72728;SDS011;60843;52.062;4.508;2023-11-18T03:53:52;15.30;;;5.65;;
72728;SDS011;60843;52.062;4.508;2023-11-18T03:56:17;18.02;;;5.53;;
72728;SDS011;60843;52.062;4.508;2023-11-18T03:58:43;15.00;;;6.13;;
72728;SDS011;60843;52.062;4.508;2023-11-18T04:01:20;15.77;;;5.28;;
72728;SDS011;60843;52.062;4.508;2023-11-18T04:03:46;11.32;;;5.65;;
72728;SDS011;60843;52.062;4.508;2023-11-18T04:06:12;13.80;;;5.72;;
72728;SDS011;60843;52.062;4.508;2023-11-18T04:08:42;17.60;;;5.85;;
72728;SDS011;60843;52.062;4.508;2023-11-18T04:11:13;11.65;;;5.65;;
72728;SDS011;60843;52.062;4.508;2023-11-18T04:13:39;13.95;;;5.57;;
72728;SDS011;60843;52.062;4.508;2023-11-18T04:16:09;12.20;;;5.78;;
72728;SDS011;60843;52.062;4.508;2023-11-18T04:18:38;12.55;;;6.40;;
72728;SDS011;60843;52.062;4.508;2023-11-18T04:21:05;7.80;;;5.57;;
72728;SDS011;60843;52.062;4.508;2023-11-18T04:23:44;13.05;;;6.85;;
72728;SDS011;60843;52.062;4.508;2023-11-18T04:26:11;11.77;;;6.50;;
72728;SDS011;60843;52.062;4.508;2023-11-18T04:28:37;12.38;;;5.90;;
72728;SDS011;60843;52.062;4.508;2023-11-18T04:31:03;8.88;;;5.25;;
72728;SDS011;60843;52.062;4.508;2023-11-18T04:33:32;15.68;;;6.75;;
72728;SDS011;60843;52.062;4.508;2023-11-18T04:35:58;13.02;;;6.72;;
72728;SDS011;60843;52.062;4.508;2023-11-18T04:38:24;15.52;;;6.25;;
72728;SDS011;60843;52.062;4.508;2023-11-18T04:40:51;11.32;;;6.72;;
72728;SDS011;60843;52.062;4.508;2023-11-18T04:43:17;14.82;;;7.28;;
72728;SDS011;60843;52.062;4.508;2023-11-18T04:45:43;13.80;;;6.70;;
72728;SDS011;60843;52.062;4.508;2023-11-18T04:48:09;16.27;;;6.65;;
72728;SDS011;60843;52.062;4.508;2023-11-18T04:50:34;9.70;;;6.28;;
72728;SDS011;60843;52.062;4.508;2023-11-18T04:53:00;13.48;;;6.38;;
72728;SDS011;60843;52.062;4.508;2023-11-18T04:55:27;14.52;;;7.18;;
72728;SDS011;60843;52.062;4.508;2023-11-18T04:57:54;11.73;;;5.60;;
72728;SDS011;60843;52.062;4.508;2023-11-18T05:00:20;16.90;;;5.88;;
72728;SDS011;60843;52.062;4.508;2023-11-18T05:02:49;18.08;;;6.57;;
72728;SDS011;60843;52.062;4.508;2023-11-18T05:05:15;13.20;;;6.15;;
72728;SDS011;60843;52.062;4.508;2023-11-18T05:07:41;15.60;;;6.15;;
72728;SDS011;60843;52.062;4.508;2023-11-18T05:10:08;12.18;;;6.25;;
72728;SDS011;60843;52.062;4.508;2023-11-18T05:12:35;13.25;;;6.25;;
72728;SDS011;60843;52.062;4.508;2023-11-18T05:15:02;11.48;;;6.32;;
72728;SDS011;60843;52.062;4.508;2023-11-18T05:17:38;15.98;;;6.68;;
72728;SDS011;60843;52.062;4.508;2023-11-18T05:20:07;13.27;;;6.32;;
72728;SDS011;60843;52.062;4.508;2023-11-18T05:22:34;13.43;;;6.97;;
72728;SDS011;60843;52.062;4.508;2023-11-18T05:25:02;13.15;;;6.25;;
72728;SDS011;60843;52.062;4.508;2023-11-18T05:27:30;15.40;;;6.47;;
72728;SDS011;60843;52.062;4.508;2023-11-18T05:29:56;12.00;;;5.78;;
72728;SDS011;60843;52.062;4.508;2023-11-18T05:32:26;17.83;;;6.85;;
72728;SDS011;60843;52.062;4.508;2023-11-18T05:37:20;12.52;;;5.63;;
72728;SDS011;60843;52.062;4.508;2023-11-18T05:39:46;15.98;;;5.97;;
72728;SDS011;60843;52.062;4.508;2023-11-18T05:42:14;13.07;;;5.68;;
72728;SDS011;60843;52.062;4.508;2023-11-18T05:44:40;15.00;;;5.90;;
72728;SDS011;60843;52.062;4.508;2023-11-18T05:47:08;8.98;;;5.30;;
72728;SDS011;60843;52.062;4.508;2023-11-18T05:49:36;10.32;;;6.32;;
72728;SDS011;60843;52.062;4.508;2023-11-18T05:52:02;15.18;;;6.80;;
72728;SDS011;60843;52.062;4.508;2023-11-18T05:54:30;12.40;;;6.22;;
72728;SDS011;60843;52.062;4.508;2023-11-18T05:59:24;16.15;;;6.10;;
72728;SDS011;60843;52.062;4.508;2023-11-18T06:01:51;15.80;;;6.97;;
72728;SDS011;60843;52.062;4.508;2023-11-18T06:04:17;10.65;;;5.50;;
72728;SDS011;60843;52.062;4.508;2023-11-18T06:06:43;12.18;;;6.07;;
72728;SDS011;60843;52.062;4.508;2023-11-18T06:09:09;18.40;;;6.13;;
72728;SDS011;60843;52.062;4.508;2023-11-18T06:11:43;15.63;;;5.55;;
72728;SDS011;60843;52.062;4.508;2023-11-18T06:14:10;11.77;;;5.60;;
72728;SDS011;60843;52.062;4.508;2023-11-18T06:16:37;15.43;;;6.00;;
72728;SDS011;60843;52.062;4.508;2023-11-18T06:19:05;10.52;;;5.80;;
72728;SDS011;60843;52.062;4.508;2023-11-18T06:21:31;11.93;;;5.18;;
72728;SDS011;60843;52.062;4.508;2023-11-18T06:23:57;13.35;;;5.32;;
72728;SDS011;60843;52.062;4.508;2023-11-18T06:26:23;11.93;;;5.57;;
72728;SDS011;60843;52.062;4.508;2023-11-18T06:28:53;14.80;;;5.22;;
72728;SDS011;60843;52.062;4.508;2023-11-18T06:31:20;9.00;;;5.20;;
72728;SDS011;60843;52.062;4.508;2023-11-18T06:33:46;9.50;;;4.80;;
72728;SDS011;60843;52.062;4.508;2023-11-18T06:38:47;11.90;;;5.57;;
72728;SDS011;60843;52.062;4.508;2023-11-18T06:41:15;15.48;;;5.50;;
72728;SDS011;60843;52.062;4.508;2023-11-18T06:43:43;14.63;;;5.88;;
72728;SDS011;60843;52.062;4.508;2023-11-18T06:46:31;13.05;;;4.18;;
72728;SDS011;60843;52.062;4.508;2023-11-18T06:48:59;13.82;;;5.43;;
72728;SDS011;60843;52.062;4.508;2023-11-18T06:51:29;14.48;;;5.03;;
72728;SDS011;60843;52.062;4.508;2023-11-18T06:53:57;16.35;;;6.13;;
72728;SDS011;60843;52.062;4.508;2023-11-18T06:56:23;16.08;;;6.22;;
72728;SDS011;60843;52.062;4.508;2023-11-18T06:58:52;13.15;;;5.57;;
72728;SDS011;60843;52.062;4.508;2023-11-18T07:01:18;11.55;;;5.22;;
72728;SDS011;60843;52.062;4.508;2023-11-18T07:03:44;13.40;;;5.28;;
72728;SDS011;60843;52.062;4.508;2023-11-18T07:06:16;15.48;;;5.70;;
72728;SDS011;60843;52.062;4.508;2023-11-18T07:08:46;13.82;;;5.47;;
72728;SDS011;60843;52.062;4.508;2023-11-18T07:13:41;11.70;;;4.60;;
72728;SDS011;60843;52.062;4.508;2023-11-18T07:16:07;16.27;;;4.95;;
72728;SDS011;60843;52.062;4.508;2023-11-18T07:18:34;15.07;;;5.18;;
72728;SDS011;60843;52.062;4.508;2023-11-18T07:21:03;12.98;;;4.95;;
72728;SDS011;60843;52.062;4.508;2023-11-18T07:23:30;21.02;;;5.65;;
72728;SDS011;60843;52.062;4.508;2023-11-18T07:25:58;11.00;;;4.82;;
72728;SDS011;60843;52.062;4.508;2023-11-18T07:28:24;11.82;;;4.40;;
72728;SDS011;60843;52.062;4.508;2023-11-18T07:30:50;14.75;;;4.80;;
72728;SDS011;60843;52.062;4.508;2023-11-18T07:33:17;10.00;;;4.85;;
72728;SDS011;60843;52.062;4.508;2023-11-18T07:35:44;15.48;;;4.97;;
72728;SDS011;60843;52.062;4.508;2023-11-18T07:38:11;10.85;;;4.50;;
72728;SDS011;60843;52.062;4.508;2023-11-18T07:40:37;10.30;;;4.07;;
72728;SDS011;60843;52.062;4.508;2023-11-18T07:43:07;9.70;;;4.93;;
72728;SDS011;60843;52.062;4.508;2023-11-18T07:45:37;16.63;;;5.47;;
72728;SDS011;60843;52.062;4.508;2023-11-18T07:48:06;9.82;;;4.10;;
72728;SDS011;60843;52.062;4.508;2023-11-18T07:50:35;8.02;;;4.53;;
72728;SDS011;60843;52.062;4.508;2023-11-18T07:53:02;11.38;;;3.80;;
72728;SDS011;60843;52.062;4.508;2023-11-18T07:55:28;11.48;;;4.07;;
72728;SDS011;60843;52.062;4.508;2023-11-18T07:57:54;10.50;;;3.83;;
72728;SDS011;60843;52.062;4.508;2023-11-18T08:00:20;10.23;;;4.05;;
72728;SDS011;60843;52.062;4.508;2023-11-18T08:02:46;13.20;;;3.78;;
72728;SDS011;60843;52.062;4.508;2023-11-18T08:05:11;9.68;;;3.80;;
72728;SDS011;60843;52.062;4.508;2023-11-18T08:10:09;7.82;;;3.47;;
72728;SDS011;60843;52.062;4.508;2023-11-18T08:12:40;11.38;;;3.97;;
72728;SDS011;60843;52.062;4.508;2023-11-18T08:15:06;10.65;;;3.38;;
72728;SDS011;60843;52.062;4.508;2023-11-18T08:17:32;8.10;;;3.33;;
72728;SDS011;60843;52.062;4.508;2023-11-18T08:19:59;10.20;;;3.42;;
72728;SDS011;60843;52.062;4.508;2023-11-18T08:22:24;10.15;;;4.00;;
72728;SDS011;60843;52.062;4.508;2023-11-18T08:24:50;14.38;;;4.78;;
72728;SDS011;60843;52.062;4.508;2023-11-18T08:27:16;11.27;;;4.05;;
72728;SDS011;60843;52.062;4.508;2023-11-18T08:29:41;9.45;;;3.70;;
72728;SDS011;60843;52.062;4.508;2023-11-18T08:32:07;7.80;;;3.67;;
72728;SDS011;60843;52.062;4.508;2023-11-18T08:34:36;7.28;;;3.75;;
72728;SDS011;60843;52.062;4.508;2023-11-18T08:37:05;8.25;;;3.15;;
72728;SDS011;60843;52.062;4.508;2023-11-18T08:39:31;8.18;;;3.50;;
72728;SDS011;60843;52.062;4.508;2023-11-18T08:41:57;12.38;;;3.67;;
72728;SDS011;60843;52.062;4.508;2023-11-18T08:44:23;5.88;;;3.20;;
72728;SDS011;60843;52.062;4.508;2023-11-18T08:46:49;9.70;;;3.70;;
72728;SDS011;60843;52.062;4.508;2023-11-18T08:49:18;13.35;;;3.40;;
72728;SDS011;60843;52.062;4.508;2023-11-18T08:51:49;8.63;;;3.97;;
72728;SDS011;60843;52.062;4.508;2023-11-18T08:54:21;5.38;;;2.53;;
72728;SDS011;60843;52.062;4.508;2023-11-18T08:56:50;13.32;;;3.42;;
72728;SDS011;60843;52.062;4.508;2023-11-18T08:59:18;6.82;;;3.17;;
72728;SDS011;60843;52.062;4.508;2023-11-18T09:01:49;8.27;;;3.33;;
72728;SDS011;60843;52.062;4.508;2023-11-18T09:04:20;8.50;;;3.33;;
72728;SDS011;60843;52.062;4.508;2023-11-18T09:06:49;10.32;;;3.53;;
72728;SDS011;60843;52.062;4.508;2023-11-18T09:09:19;7.03;;;3.20;;
72728;SDS011;60843;52.062;4.508;2023-11-18T09:11:51;6.97;;;3.00;;
72728;SDS011;60843;52.062;4.508;2023-11-18T09:14:26;9.68;;;3.33;;
72728;SDS011;60843;52.062;4.508;2023-11-18T09:16:52;8.25;;;3.05;;
72728;SDS011;60843;52.062;4.508;2023-11-18T09:19:21;9.18;;;3.53;;
72728;SDS011;60843;52.062;4.508;2023-11-18T09:21:47;9.63;;;3.90;;
72728;SDS011;60843;52.062;4.508;2023-11-18T09:24:14;8.80;;;4.22;;
72728;SDS011;60843;52.062;4.508;2023-11-18T09:26:45;10.40;;;3.67;;
72728;SDS011;60843;52.062;4.508;2023-11-18T09:29:16;7.50;;;3.72;;
72728;SDS011;60843;52.062;4.508;2023-11-18T09:31:48;4.97;;;2.53;;
72728;SDS011;60843;52.062;4.508;2023-11-18T09:34:14;9.13;;;3.08;;
72728;SDS011;60843;52.062;4.508;2023-11-18T09:36:43;8.45;;;2.95;;
72728;SDS011;60843;52.062;4.508;2023-11-18T09:39:09;8.40;;;3.00;;
72728;SDS011;60843;52.062;4.508;2023-11-18T09:41:41;13.98;;;3.60;;
72728;SDS011;60843;52.062;4.508;2023-11-18T09:44:07;4.32;;;2.22;;
72728;SDS011;60843;52.062;4.508;2023-11-18T09:46:32;5.20;;;1.88;;
72728;SDS011;60843;52.062;4.508;2023-11-18T09:51:50;6.18;;;2.95;;
72728;SDS011;60843;52.062;4.508;2023-11-18T10:02:38;7.43;;;3.13;;
72728;SDS011;60843;52.062;4.508;2023-11-18T10:05:05;6.63;;;3.05;;
72728;SDS011;60843;52.062;4.508;2023-11-18T10:07:38;11.57;;;3.08;;
72728;SDS011;60843;52.062;4.508;2023-11-18T10:10:05;8.48;;;2.88;;
72728;SDS011;60843;52.062;4.508;2023-11-18T10:12:39;8.07;;;2.72;;
72728;SDS011;60843;52.062;4.508;2023-11-18T10:15:17;9.27;;;2.67;;
72728;SDS011;60843;52.062;4.508;2023-11-18T10:17:44;11.55;;;2.25;;
72728;SDS011;60843;52.062;4.508;2023-11-18T10:20:46;10.00;;;3.03;;
72728;SDS011;60843;52.062;4.508;2023-11-18T10:23:14;5.25;;;2.53;;
72728;SDS011;60843;52.062;4.508;2023-11-18T10:26:00;7.22;;;2.63;;
72728;SDS011;60843;52.062;4.508;2023-11-18T10:28:31;7.93;;;2.88;;
72728;SDS011;60843;52.062;4.508;2023-11-18T10:31:07;9.38;;;3.22;;
72728;SDS011;60843;52.062;4.508;2023-11-18T10:33:41;7.53;;;2.53;;
72728;SDS011;60843;52.062;4.508;2023-11-18T10:36:16;6.53;;;2.13;;
72728;SDS011;60843;52.062;4.508;2023-11-18T10:38:47;8.60;;;2.88;;
72728;SDS011;60843;52.062;4.508;2023-11-18T10:41:15;8.38;;;2.97;;
72728;SDS011;60843;52.062;4.508;2023-11-18T10:43:43;8.93;;;2.30;;
72728;SDS011;60843;52.062;4.508;2023-11-18T10:46:12;9.93;;;2.95;;
72728;SDS011;60843;52.062;4.508;2023-11-18T10:48:42;7.28;;;2.25;;
72728;SDS011;60843;52.062;4.508;2023-11-18T10:51:12;4.32;;;2.30;;
72728;SDS011;60843;52.062;4.508;2023-11-18T10:53:48;6.18;;;1.90;;
72728;SDS011;60843;52.062;4.508;2023-11-18T10:56:23;4.35;;;2.03;;
72728;SDS011;60843;52.062;4.508;2023-11-18T10:58:55;2.53;;;1.38;;
72728;SDS011;60843;52.062;4.508;2023-11-18T11:03:57;5.05;;;1.38;;
72728;SDS011;60843;52.062;4.508;2023-11-18T11:06:26;6.57;;;1.65;;
72728;SDS011;60843;52.062;4.508;2023-11-18T11:08:56;4.20;;;1.55;;
72728;SDS011;60843;52.062;4.508;2023-11-18T11:11:24;4.85;;;1.20;;
72728;SDS011;60843;52.062;4.508;2023-11-18T11:13:57;5.18;;;1.77;;
72728;SDS011;60843;52.062;4.508;2023-11-18T11:16:33;4.22;;;1.70;;
72728;SDS011;60843;52.062;4.508;2023-11-18T11:19:17;3.55;;;1.48;;
72728;SDS011;60843;52.062;4.508;2023-11-18T11:22:12;6.95;;;2.00;;
72728;SDS011;60843;52.062;4.508;2023-11-18T11:25:41;6.47;;;1.52;;
72728;SDS011;60843;52.062;4.508;2023-11-18T11:27:46;2.85;;;1.67;;
72728;SDS011;60843;52.062;4.508;2023-11-18T11:30:40;1.88;;;1.45;;
72728;SDS011;60843;52.062;4.508;2023-11-18T11:33:26;4.68;;;1.67;;
72728;SDS011;60843;52.062;4.508;2023-11-18T11:36:09;1.90;;;1.17;;
72728;SDS011;60843;52.062;4.508;2023-11-18T11:38:38;3.55;;;1.20;;
72728;SDS011;60843;52.062;4.508;2023-11-18T11:41:05;6.43;;;1.73;;
72728;SDS011;60843;52.062;4.508;2023-11-18T11:43:30;6.68;;;1.95;;
72728;SDS011;60843;52.062;4.508;2023-11-18T11:45:59;1.10;;;0.95;;
72728;SDS011;60843;52.062;4.508;2023-11-18T11:48:28;5.32;;;1.55;;
72728;SDS011;60843;52.062;4.508;2023-11-18T11:51:09;5.72;;;1.08;;
72728;SDS011;60843;52.062;4.508;2023-11-18T11:54:11;3.78;;;1.35;;
72728;SDS011;60843;52.062;4.508;2023-11-18T11:56:44;4.13;;;1.27;;
72728;SDS011;60843;52.062;4.508;2023-11-18T11:59:17;3.60;;;1.60;;
72728;SDS011;60843;52.062;4.508;2023-11-18T12:02:03;3.05;;;1.63;;
72728;SDS011;60843;52.062;4.508;2023-11-18T12:04:33;3.10;;;1.95;;
72728;SDS011;60843;52.062;4.508;2023-11-18T12:07:03;2.47;;;1.42;;
72728;SDS011;60843;52.062;4.508;2023-11-18T12:09:30;2.67;;;1.63;;
72728;SDS011;60843;52.062;4.508;2023-11-18T12:12:02;2.60;;;1.45;;
72728;SDS011;60843;52.062;4.508;2023-11-18T12:14:50;8.38;;;1.50;;
72728;SDS011;60843;52.062;4.508;2023-11-18T12:17:17;1.92;;;1.25;;
72728;SDS011;60843;52.062;4.508;2023-11-18T12:19:46;1.70;;;1.13;;
72728;SDS011;60843;52.062;4.508;2023-11-18T12:22:14;6.47;;;1.90;;
72728;SDS011;60843;52.062;4.508;2023-11-18T12:25:28;4.40;;;1.20;;
72728;SDS011;60843;52.062;4.508;2023-11-18T12:30:26;2.38;;;1.35;;
72728;SDS011;60843;52.062;4.508;2023-11-18T12:35:26;2.38;;;1.45;;
72728;SDS011;60843;52.062;4.508;2023-11-18T12:38:00;2.83;;;1.25;;
72728;SDS011;60843;52.062;4.508;2023-11-18T12:40:56;1.77;;;0.82;;
72728;SDS011;60843;52.062;4.508;2023-11-18T12:43:48;4.97;;;1.17;;
72728;SDS011;60843;52.062;4.508;2023-11-18T12:46:30;1.60;;;1.08;;
72728;SDS011;60843;52.062;4.508;2023-11-18T12:49:46;1.92;;;1.10;;
72728;SDS011;60843;52.062;4.508;2023-11-18T12:52:19;1.88;;;1.17;;
72728;SDS011;60843;52.062;4.508;2023-11-18T12:54:47;2.08;;;1.42;;
72728;SDS011;60843;52.062;4.508;2023-11-18T12:57:16;1.98;;;1.20;;
72728;SDS011;60843;52.062;4.508;2023-11-18T12:59:43;1.63;;;1.00;;
72728;SDS011;60843;52.062;4.508;2023-11-18T13:02:09;1.17;;;0.75;;
72728;SDS011;60843;52.062;4.508;2023-11-18T13:04:43;2.63;;;1.35;;
72728;SDS011;60843;52.062;4.508;2023-11-18T13:07:13;2.35;;;1.08;;
72728;SDS011;60843;52.062;4.508;2023-11-18T13:09:42;2.15;;;1.70;;
72728;SDS011;60843;52.062;4.508;2023-11-18T13:12:10;1.85;;;1.20;;
72728;SDS011;60843;52.062;4.508;2023-11-18T13:14:40;1.35;;;0.85;;
72728;SDS011;60843;52.062;4.508;2023-11-18T13:17:09;2.42;;;1.10;;
72728;SDS011;60843;52.062;4.508;2023-11-18T13:19:39;1.38;;;1.00;;
72728;SDS011;60843;52.062;4.508;2023-11-18T13:22:08;1.30;;;1.00;;
72728;SDS011;60843;52.062;4.508;2023-11-18T13:24:40;1.63;;;1.20;;
72728;SDS011;60843;52.062;4.508;2023-11-18T13:27:10;2.92;;;1.58;;
72728;SDS011;60843;52.062;4.508;2023-11-18T13:29:38;2.03;;;0.90;;
72728;SDS011;60843;52.062;4.508;2023-11-18T13:32:07;2.00;;;1.13;;
72728;SDS011;60843;52.062;4.508;2023-11-18T13:34:35;2.72;;;1.70;;
72728;SDS011;60843;52.062;4.508;2023-11-18T13:37:03;1.73;;;1.08;;
72728;SDS011;60843;52.062;4.508;2023-11-18T13:39:31;2.72;;;1.50;;
72728;SDS011;60843;52.062;4.508;2023-11-18T13:41:56;3.05;;;1.30;;
72728;SDS011;60843;52.062;4.508;2023-11-18T13:44:32;1.67;;;1.15;;
72728;SDS011;60843;52.062;4.508;2023-11-18T13:47:06;3.05;;;1.30;;
72728;SDS011;60843;52.062;4.508;2023-11-18T13:49:34;1.58;;;1.08;;
72728;SDS011;60843;52.062;4.508;2023-11-18T13:52:00;4.95;;;1.00;;
72728;SDS011;60843;52.062;4.508;2023-11-18T13:54:27;1.45;;;0.82;;
72728;SDS011;60843;52.062;4.508;2023-11-18T13:56:54;2.67;;;1.05;;
72728;SDS011;60843;52.062;4.508;2023-11-18T13:59:26;1.50;;;1.02;;
72728;SDS011;60843;52.062;4.508;2023-11-18T14:01:56;1.08;;;0.80;;
72728;SDS011;60843;52.062;4.508;2023-11-18T14:04:29;1.45;;;1.08;;
72728;SDS011;60843;52.062;4.508;2023-11-18T14:06:57;1.35;;;1.00;;
72728;SDS011;60843;52.062;4.508;2023-11-18T14:09:25;1.23;;;0.75;;
72728;SDS011;60843;52.062;4.508;2023-11-18T14:11:52;2.38;;;1.20;;
72728;SDS011;60843;52.062;4.508;2023-11-18T14:14:20;1.88;;;0.80;;
72728;SDS011;60843;52.062;4.508;2023-11-18T14:16:46;1.60;;;0.90;;
72728;SDS011;60843;52.062;4.508;2023-11-18T14:19:12;1.58;;;0.75;;
72728;SDS011;60843;52.062;4.508;2023-11-18T14:21:41;1.42;;;0.80;;
72728;SDS011;60843;52.062;4.508;2023-11-18T14:24:08;2.42;;;0.80;;
72728;SDS011;60843;52.062;4.508;2023-11-18T14:26:35;1.05;;;0.60;;
72728;SDS011;60843;52.062;4.508;2023-11-18T14:29:05;2.20;;;0.80;;
72728;SDS011;60843;52.062;4.508;2023-11-18T14:31:32;1.80;;;1.00;;
72728;SDS011;60843;52.062;4.508;2023-11-18T14:34:01;1.63;;;0.88;;
72728;SDS011;60843;52.062;4.508;2023-11-18T14:36:29;0.65;;;0.40;;
72728;SDS011;60843;52.062;4.508;2023-11-18T14:38:55;2.92;;;1.10;;
72728;SDS011;60843;52.062;4.508;2023-11-18T14:41:23;0.98;;;0.60;;
72728;SDS011;60843;52.062;4.508;2023-11-18T14:43:52;3.70;;;1.50;;
72728;SDS011;60843;52.062;4.508;2023-11-18T14:46:18;3.53;;;0.80;;
72728;SDS011;60843;52.062;4.508;2023-11-18T14:48:44;1.88;;;0.80;;
72728;SDS011;60843;52.062;4.508;2023-11-18T14:51:10;0.70;;;0.55;;
72728;SDS011;60843;52.062;4.508;2023-11-18T14:53:36;0.98;;;0.70;;
72728;SDS011;60843;52.062;4.508;2023-11-18T14:56:12;2.15;;;1.00;;
72728;SDS011;60843;52.062;4.508;2023-11-18T14:58:37;2.22;;;1.25;;
72728;SDS011;60843;52.062;4.508;2023-11-18T15:01:03;1.30;;;1.05;;
72728;SDS011;60843;52.062;4.508;2023-11-18T15:03:32;1.63;;;0.98;;
72728;SDS011;60843;52.062;4.508;2023-11-18T15:05:58;2.47;;;0.77;;
72728;SDS011;60843;52.062;4.508;2023-11-18T15:08:24;2.30;;;1.30;;
72728;SDS011;60843;52.062;4.508;2023-11-18T15:10:50;4.38;;;1.00;;
72728;SDS011;60843;52.062;4.508;2023-11-18T15:13:16;3.28;;;1.10;;
72728;SDS011;60843;52.062;4.508;2023-11-18T15:15:42;2.53;;;0.90;;
72728;SDS011;60843;52.062;4.508;2023-11-18T15:18:10;1.30;;;0.90;;
72728;SDS011;60843;52.062;4.508;2023-11-18T15:20:48;2.53;;;1.10;;
72728;SDS011;60843;52.062;4.508;2023-11-18T15:23:14;1.70;;;1.08;;
72728;SDS011;60843;52.062;4.508;2023-11-18T15:25:49;2.85;;;1.48;;
72728;SDS011;60843;52.062;4.508;2023-11-18T15:28:15;1.02;;;0.93;;
72728;SDS011;60843;52.062;4.508;2023-11-18T15:30:42;1.77;;;1.00;;